UAL429 KSAN-KLAX
Flight info
| Callsign | UAL429 |
|---|---|
| Flight time | 0h 24m |
| Altitude | 10000 |
| Route | KSAN CWARD2 SLI |
| Aircraft | B738/M-G/C |
Departure
| Time | 2026-04-22 02:21 |
|---|---|
| Airport | San Diego International Airport (KSAN) |
Arrival
| Time | 2026-04-22 02:45 |
|---|---|
| Airport | Los Angeles International Airport (KLAX) |
| Time | Latitude | Longitude | Altitude | Speed | Heading |
|---|---|---|---|---|---|
| 2026-04-22 02:09 | 32.73155 | -117.19134 | 21 ft | 0 kts | 66° |
| 2026-04-22 02:16 | 32.73156 | -117.19134 | 21 ft | 0 kts | 66° |
| 2026-04-22 02:16 | 32.73159 | -117.19124 | 21 ft | 3 kts | 60° |
| 2026-04-22 02:16 | 32.73198 | -117.19083 | 21 ft | 9 kts | 38° |
| 2026-04-22 02:17 | 32.73256 | -117.19038 | 22 ft | 10 kts | 68° |
| 2026-04-22 02:17 | 32.73248 | -117.18927 | 22 ft | 18 kts | 104° |
| 2026-04-22 02:17 | 32.73204 | -117.18754 | 21 ft | 24 kts | 107° |
| 2026-04-22 02:17 | 32.73147 | -117.18537 | 21 ft | 29 kts | 105° |
| 2026-04-22 02:18 | 32.73084 | -117.18280 | 21 ft | 34 kts | 105° |
| 2026-04-22 02:18 | 32.73016 | -117.17999 | 21 ft | 34 kts | 110° |
| 2026-04-22 02:18 | 32.72964 | -117.17805 | 24 ft | 3 kts | 106° |
| 2026-04-22 02:18 | 32.72962 | -117.17794 | 24 ft | 0 kts | 106° |
| 2026-04-22 02:19 | 32.72961 | -117.17790 | 24 ft | 2 kts | 106° |
| 2026-04-22 02:19 | 32.72952 | -117.17751 | 25 ft | 7 kts | 99° |
| 2026-04-22 02:19 | 32.72964 | -117.17650 | 27 ft | 15 kts | 63° |
| 2026-04-22 02:19 | 32.73040 | -117.17657 | 27 ft | 16 kts | 286° |
| 2026-04-22 02:20 | 32.73074 | -117.17811 | 25 ft | 25 kts | 284° |
| 2026-04-22 02:20 | 32.73175 | -117.18219 | 21 ft | 90 kts | 287° |
| 2026-04-22 02:20 | 32.73412 | -117.19231 | 27 ft | 162 kts | 285° |
| 2026-04-22 02:20 | 32.73749 | -117.20637 | 459 ft | 186 kts | 286° |
| 2026-04-22 02:21 | 32.74227 | -117.22099 | 1045 ft | 198 kts | 296° |
| 2026-04-22 02:21 | 32.74905 | -117.23490 | 1852 ft | 192 kts | 303° |
| 2026-04-22 02:21 | 32.75664 | -117.24788 | 2384 ft | 191 kts | 304° |
| 2026-04-22 02:21 | 32.76390 | -117.26019 | 3111 ft | 176 kts | 304° |
| 2026-04-22 02:22 | 32.77072 | -117.27170 | 3678 ft | 172 kts | 304° |
| 2026-04-22 02:22 | 32.77795 | -117.28378 | 3942 ft | 185 kts | 304° |
| 2026-04-22 02:22 | 32.78550 | -117.29632 | 4332 ft | 184 kts | 304° |
| 2026-04-22 02:22 | 32.79294 | -117.30850 | 4697 ft | 186 kts | 304° |
| 2026-04-22 02:23 | 32.80071 | -117.32104 | 5109 ft | 186 kts | 304° |
| 2026-04-22 02:23 | 32.80838 | -117.33324 | 5510 ft | 185 kts | 304° |
| 2026-04-22 02:23 | 32.81620 | -117.34554 | 5920 ft | 185 kts | 304° |
| 2026-04-22 02:23 | 32.82399 | -117.35763 | 6322 ft | 185 kts | 304° |
| 2026-04-22 02:24 | 32.83266 | -117.36929 | 6735 ft | 194 kts | 310° |
| 2026-04-22 02:24 | 32.84244 | -117.38106 | 7174 ft | 209 kts | 310° |
| 2026-04-22 02:24 | 32.85306 | -117.39387 | 7581 ft | 226 kts | 310° |
| 2026-04-22 02:24 | 32.86441 | -117.40765 | 7978 ft | 244 kts | 310° |
| 2026-04-22 02:25 | 32.87599 | -117.42333 | 8298 ft | 260 kts | 297° |
| 2026-04-22 02:25 | 32.88407 | -117.44315 | 8711 ft | 272 kts | 291° |
| 2026-04-22 02:25 | 32.89391 | -117.46295 | 9199 ft | 287 kts | 301° |
| 2026-04-22 02:25 | 32.90591 | -117.48219 | 9835 ft | 294 kts | 302° |
| 2026-04-22 02:26 | 32.91819 | -117.50165 | 9936 ft | 292 kts | 302° |
| 2026-04-22 02:26 | 32.93034 | -117.52090 | 9945 ft | 289 kts | 302° |
| 2026-04-22 02:26 | 32.94234 | -117.53981 | 9950 ft | 290 kts | 302° |
| 2026-04-22 02:26 | 32.95452 | -117.55888 | 9957 ft | 292 kts | 302° |
| 2026-04-22 02:27 | 32.96726 | -117.57878 | 9960 ft | 312 kts | 302° |
| 2026-04-22 02:27 | 32.98101 | -117.60033 | 9955 ft | 337 kts | 303° |
| 2026-04-22 02:27 | 32.99559 | -117.62309 | 9958 ft | 350 kts | 303° |
| 2026-04-22 02:27 | 33.01040 | -117.64603 | 9956 ft | 346 kts | 303° |
| 2026-04-22 02:28 | 33.02488 | -117.66856 | 9953 ft | 344 kts | 302° |
| 2026-04-22 02:28 | 33.03941 | -117.69135 | 9955 ft | 346 kts | 302° |
| 2026-04-22 02:28 | 33.05404 | -117.71433 | 9942 ft | 346 kts | 302° |
| 2026-04-22 02:28 | 33.06999 | -117.73579 | 9943 ft | 351 kts | 313° |
| 2026-04-22 02:29 | 33.08875 | -117.75476 | 9953 ft | 354 kts | 316° |
| 2026-04-22 02:29 | 33.10748 | -117.77339 | 9950 ft | 353 kts | 315° |
| 2026-04-22 02:29 | 33.12602 | -117.79243 | 9956 ft | 352 kts | 314° |
| 2026-04-22 02:29 | 33.14468 | -117.81160 | 9952 ft | 353 kts | 315° |
| 2026-04-22 02:30 | 33.16328 | -117.83050 | 9945 ft | 352 kts | 315° |
| 2026-04-22 02:30 | 33.18224 | -117.84936 | 9955 ft | 354 kts | 319° |
| 2026-04-22 02:30 | 33.20392 | -117.86404 | 9954 ft | 363 kts | 336° |
| 2026-04-22 02:30 | 33.22843 | -117.87122 | 9947 ft | 366 kts | 346° |
| 2026-04-22 02:31 | 33.25352 | -117.87671 | 9946 ft | 367 kts | 345° |
| 2026-04-22 02:31 | 33.27861 | -117.88288 | 9943 ft | 366 kts | 344° |
| 2026-04-22 02:31 | 33.30344 | -117.88920 | 9942 ft | 358 kts | 344° |
| 2026-04-22 02:31 | 33.32699 | -117.89506 | 9944 ft | 339 kts | 344° |
| 2026-04-22 02:32 | 33.34958 | -117.90055 | 9945 ft | 322 kts | 344° |
| 2026-04-22 02:32 | 33.37114 | -117.90588 | 9949 ft | 308 kts | 343° |
| 2026-04-22 02:32 | 33.39177 | -117.91147 | 9928 ft | 306 kts | 340° |
| 2026-04-22 02:32 | 33.41228 | -117.91883 | 9742 ft | 308 kts | 337° |
| 2026-04-22 02:33 | 33.42535 | -117.92391 | 9598 ft | 303 kts | 337° |
| 2026-04-22 02:33 | 33.42992 | -117.92565 | 9542 ft | 302 kts | 338° |
| 2026-04-22 02:33 | 33.43939 | -117.92918 | 9432 ft | 298 kts | 338° |
| 2026-04-22 02:33 | 33.45902 | -117.93626 | 9224 ft | 291 kts | 338° |
| 2026-04-22 02:34 | 33.47825 | -117.94323 | 9039 ft | 288 kts | 338° |
| 2026-04-22 02:34 | 33.49762 | -117.95022 | 8846 ft | 288 kts | 341° |
| 2026-04-22 02:34 | 33.51701 | -117.95565 | 8659 ft | 289 kts | 341° |
| 2026-04-22 02:34 | 33.53643 | -117.96189 | 8464 ft | 287 kts | 340° |
| 2026-04-22 02:35 | 33.55562 | -117.96839 | 8268 ft | 284 kts | 340° |
| 2026-04-22 02:35 | 33.57462 | -117.97479 | 8078 ft | 283 kts | 340° |
| 2026-04-22 02:35 | 33.59339 | -117.98113 | 7884 ft | 282 kts | 340° |
| 2026-04-22 02:35 | 33.61236 | -117.98755 | 7689 ft | 280 kts | 340° |
| 2026-04-22 02:36 | 33.63120 | -117.99399 | 7491 ft | 279 kts | 340° |
| 2026-04-22 02:36 | 33.64989 | -118.00041 | 7295 ft | 277 kts | 340° |
| 2026-04-22 02:36 | 33.66842 | -118.00683 | 7096 ft | 276 kts | 340° |
| 2026-04-22 02:36 | 33.68676 | -118.01315 | 6888 ft | 275 kts | 340° |
| 2026-04-22 02:37 | 33.70513 | -118.01945 | 6571 ft | 274 kts | 341° |
| 2026-04-22 02:37 | 33.72362 | -118.02556 | 6242 ft | 271 kts | 341° |
| 2026-04-22 02:37 | 33.74166 | -118.03153 | 5918 ft | 269 kts | 341° |
| 2026-04-22 02:37 | 33.75957 | -118.03762 | 5594 ft | 266 kts | 341° |
| 2026-04-22 02:38 | 33.77754 | -118.04387 | 5268 ft | 264 kts | 341° |
| 2026-04-22 02:38 | 33.79491 | -118.05005 | 4966 ft | 261 kts | 341° |
| 2026-04-22 02:38 | 33.81220 | -118.05637 | 4758 ft | 254 kts | 341° |
| 2026-04-22 02:38 | 33.82873 | -118.06249 | 4590 ft | 245 kts | 341° |
| 2026-04-22 02:39 | 33.84457 | -118.06832 | 4405 ft | 233 kts | 341° |
| 2026-04-22 02:39 | 33.85997 | -118.07406 | 4203 ft | 229 kts | 341° |
| 2026-04-22 02:39 | 33.87535 | -118.07987 | 3996 ft | 230 kts | 341° |
| 2026-04-22 02:39 | 33.89053 | -118.08563 | 3792 ft | 230 kts | 341° |
| 2026-04-22 02:40 | 33.90583 | -118.09152 | 3604 ft | 228 kts | 341° |
| 2026-04-22 02:40 | 33.92081 | -118.09738 | 3585 ft | 225 kts | 341° |
| 2026-04-22 02:40 | 33.93492 | -118.10528 | 3575 ft | 226 kts | 319° |
| 2026-04-22 02:40 | 33.94332 | -118.12073 | 3592 ft | 224 kts | 287° |
| 2026-04-22 02:41 | 33.94870 | -118.13853 | 3583 ft | 225 kts | 291° |
| 2026-04-22 02:41 | 33.95484 | -118.15591 | 3580 ft | 225 kts | 290° |
| 2026-04-22 02:41 | 33.95783 | -118.17411 | 3479 ft | 222 kts | 265° |
| 2026-04-22 02:41 | 33.95629 | -118.19222 | 3225 ft | 215 kts | 263° |
| 2026-04-22 02:42 | 33.95482 | -118.20995 | 2943 ft | 211 kts | 261° |
| 2026-04-22 02:42 | 33.95303 | -118.22753 | 2657 ft | 208 kts | 262° |
| 2026-04-22 02:42 | 33.95132 | -118.24468 | 2375 ft | 205 kts | 261° |
| 2026-04-22 02:42 | 33.94966 | -118.26127 | 2127 ft | 192 kts | 261° |
| 2026-04-22 02:43 | 33.94809 | -118.27669 | 1843 ft | 182 kts | 261° |
| 2026-04-22 02:43 | 33.94660 | -118.29150 | 1600 ft | 176 kts | 261° |
| 2026-04-22 02:43 | 33.94520 | -118.30547 | 1376 ft | 164 kts | 260° |
| 2026-04-22 02:43 | 33.94386 | -118.31860 | 1161 ft | 159 kts | 261° |
| 2026-04-22 02:44 | 33.94253 | -118.33173 | 953 ft | 154 kts | 261° |
| 2026-04-22 02:44 | 33.94127 | -118.34428 | 747 ft | 150 kts | 261° |
| 2026-04-22 02:44 | 33.94000 | -118.35665 | 553 ft | 146 kts | 262° |
| 2026-04-22 02:44 | 33.93877 | -118.36867 | 379 ft | 146 kts | 261° |
| 2026-04-22 02:45 | 33.93756 | -118.38101 | 198 ft | 151 kts | 261° |
| 2026-04-22 02:45 | 33.93629 | -118.39284 | 108 ft | 124 kts | 262° |
| 2026-04-22 02:45 | 33.93653 | -118.39981 | 117 ft | 47 kts | 285° |
| 2026-04-22 02:45 | 33.93642 | -118.40279 | 121 ft | 13 kts | 269° |
| 2026-04-22 02:46 | 33.93661 | -118.40362 | 121 ft | 12 kts | 298° |
| 2026-04-22 02:46 | 33.93760 | -118.40430 | 123 ft | 21 kts | 353° |
| 2026-04-22 02:46 | 33.93882 | -118.40443 | 123 ft | 11 kts | 360° |
| 2026-04-22 02:46 | 33.93926 | -118.40342 | 121 ft | 18 kts | 84° |
| 2026-04-22 02:47 | 33.93943 | -118.40179 | 121 ft | 19 kts | 84° |
| 2026-04-22 02:47 | 33.94005 | -118.40078 | 119 ft | 15 kts | 7° |
| 2026-04-22 02:47 | 33.94104 | -118.40083 | 117 ft | 13 kts | 353° |
| 2026-04-22 02:47 | 33.94173 | -118.40057 | 117 ft | 8 kts | 67° |
| 2026-04-22 02:48 | 33.94182 | -118.40052 | 117 ft | 2 kts | 17° |
| 2026-04-22 02:48 | 33.94194 | -118.40040 | 117 ft | 3 kts | 36° |
| 2026-04-22 02:48 | 33.94200 | -118.40030 | 117 ft | 0 kts | 66° |